createdAt,value
2018-07-03T00:01:22.644Z,101106.95
2018-07-03T00:03:48.603Z,101112.76
2018-07-03T00:06:14.575Z,101109.45
2018-07-03T00:08:40.550Z,101107.09
2018-07-03T00:11:06.524Z,101107.95
2018-07-03T00:13:32.474Z,101105.30
2018-07-03T00:15:58.447Z,101098.14
2018-07-03T00:18:24.417Z,101093.98
2018-07-03T00:20:50.395Z,101097.78
2018-07-03T00:23:16.351Z,101091.36
2018-07-03T00:25:42.314Z,101089.03
2018-07-03T00:28:08.282Z,101085.38
2018-07-03T00:30:34.241Z,101082.88
2018-07-03T00:33:00.197Z,101089.14
2018-07-03T00:35:26.273Z,101090.83
2018-07-03T00:37:52.230Z,101087.50
2018-07-03T00:40:18.208Z,101089.03
2018-07-03T00:42:44.408Z,101089.47
2018-07-03T00:45:10.387Z,101091.63
2018-07-03T00:47:36.371Z,101089.97
2018-07-03T00:50:02.376Z,101085.34
2018-07-03T00:52:28.386Z,101088.00
2018-07-03T00:54:54.367Z,101080.84
2018-07-03T00:57:20.365Z,101079.16
2018-07-03T00:59:46.319Z,101082.98
2018-07-03T01:02:12.331Z,101084.81
2018-07-03T01:04:38.315Z,101080.80
2018-07-03T01:07:04.340Z,101073.88
2018-07-03T01:09:30.311Z,101074.56
2018-07-03T01:11:56.292Z,101075.36
2018-07-03T01:14:22.243Z,101072.77
2018-07-03T01:16:48.250Z,101068.58
2018-07-03T01:19:14.218Z,101070.73
2018-07-03T01:21:40.228Z,101072.20
2018-07-03T01:24:06.318Z,101074.38
2018-07-03T01:26:32.457Z,101070.55
2018-07-03T01:28:58.426Z,101068.40
2018-07-03T01:31:24.397Z,101068.22
2018-07-03T01:33:50.380Z,101072.66
2018-07-03T01:36:16.405Z,101074.67
2018-07-03T01:38:42.367Z,101067.04
2018-07-03T01:41:08.368Z,101077.29
2018-07-03T01:43:34.337Z,101072.81
2018-07-03T01:46:00.329Z,101076.07
2018-07-03T01:48:26.302Z,101077.44
2018-07-03T01:50:52.279Z,101081.41
2018-07-03T01:53:18.316Z,101079.91
2018-07-03T01:55:44.302Z,101072.30
2018-07-03T01:58:10.287Z,101080.77
2018-07-03T02:00:36.254Z,101076.28
2018-07-03T02:03:02.222Z,101071.80
2018-07-03T02:05:28.189Z,101072.09
2018-07-03T02:07:54.200Z,101071.41
2018-07-03T02:10:20.325Z,101077.22
2018-07-03T02:12:46.359Z,101079.44
2018-07-03T02:15:12.345Z,101075.25
2018-07-03T02:17:38.371Z,101068.63
2018-07-03T02:20:04.659Z,101072.06
2018-07-03T02:22:30.677Z,101073.53
2018-07-03T02:24:56.680Z,101076.68
2018-07-03T02:27:22.675Z,101064.58
2018-07-03T02:29:48.677Z,101072.02
2018-07-03T02:32:14.686Z,101074.20
2018-07-03T02:34:40.675Z,101073.17
2018-07-03T02:37:06.667Z,101068.41
2018-07-03T02:39:32.659Z,101064.21
2018-07-03T02:41:58.646Z,101068.00
2018-07-03T02:44:24.598Z,101058.91
2018-07-03T02:46:50.615Z,101059.27
2018-07-03T02:49:16.571Z,101069.19
2018-07-03T02:51:42.557Z,101069.05
2018-07-03T02:54:08.553Z,101071.52
2018-07-03T02:56:34.596Z,101067.22
2018-07-03T02:59:00.600Z,101075.03
2018-07-03T03:01:26.596Z,101068.91
2018-07-03T03:03:52.584Z,101066.83
2018-07-03T03:06:18.595Z,101064.89
2018-07-03T03:08:44.582Z,101065.21
2018-07-03T03:11:10.648Z,101070.52
2018-07-03T03:13:36.645Z,101066.55
2018-07-03T03:16:02.619Z,101061.06
2018-07-03T03:18:28.739Z,101063.02
2018-07-03T03:20:54.718Z,101065.39
2018-07-03T03:23:20.688Z,101070.38
2018-07-03T03:25:46.720Z,101069.37
2018-07-03T03:28:12.729Z,101065.54
2018-07-03T03:30:38.696Z,101060.37
2018-07-03T03:33:04.706Z,101061.38
2018-07-03T03:35:30.677Z,101057.77
2018-07-03T03:37:56.663Z,101059.73
2018-07-03T03:40:22.664Z,101065.63
2018-07-03T03:42:48.804Z,101065.54
2018-07-03T03:45:14.808Z,101062.67
2018-07-03T03:47:40.778Z,101059.64
2018-07-03T03:50:06.778Z,101063.26
2018-07-03T03:52:32.750Z,101070.06
2018-07-03T03:54:58.751Z,101073.36
2018-07-03T03:57:24.738Z,101074.17
2018-07-03T03:59:50.726Z,101069.88
2018-07-03T04:02:16.766Z,101078.15
2018-07-03T04:04:42.716Z,101086.09
2018-07-03T04:07:08.854Z,101078.97
2018-07-03T04:09:34.842Z,101082.27
2018-07-03T04:12:01.167Z,101092.49
2018-07-03T04:14:27.195Z,101089.70
2018-07-03T04:16:53.168Z,101094.17
2018-07-03T04:19:19.150Z,101099.94
2018-07-03T04:21:45.146Z,101102.32
2018-07-03T04:24:11.144Z,101102.49
2018-07-03T04:26:37.145Z,101102.77
2018-07-03T04:29:03.150Z,101106.36
2018-07-03T04:31:29.136Z,101102.08
2018-07-03T04:33:55.125Z,101102.03
2018-07-03T04:36:21.084Z,101098.47
2018-07-03T04:38:47.095Z,101101.89
2018-07-03T04:41:13.083Z,101107.05
2018-07-03T04:43:39.052Z,101103.36
2018-07-03T04:46:05.065Z,101099.70
2018-07-03T04:48:31.107Z,101103.17
2018-07-03T04:50:57.108Z,101114.14
2018-07-03T04:53:23.114Z,101113.67
2018-07-03T04:55:49.082Z,101118.28
2018-07-03T04:58:15.124Z,101121.62
2018-07-03T05:00:41.100Z,101128.37
2018-07-03T05:03:07.096Z,101122.70
2018-07-03T05:05:33.080Z,101124.22
2018-07-03T05:07:59.028Z,101131.17
2018-07-03T05:10:24.980Z,101131.03
2018-07-03T05:12:50.948Z,101130.91
2018-07-03T05:15:16.948Z,101128.56
2018-07-03T05:17:42.932Z,101125.84
2018-07-03T05:20:08.989Z,101118.16
2018-07-03T05:22:34.997Z,101123.41
2018-07-03T05:25:00.995Z,101121.41
2018-07-03T05:27:27.017Z,101126.06
2018-07-03T05:29:53.002Z,101129.70
2018-07-03T05:32:19.041Z,101127.62
2018-07-03T05:34:45.034Z,101133.55
2018-07-03T05:37:11.131Z,101132.09
2018-07-03T05:39:37.408Z,101137.03
2018-07-03T05:42:03.384Z,101144.06
2018-07-03T05:44:29.368Z,101147.55
2018-07-03T05:46:55.602Z,101143.93
2018-07-03T05:49:21.555Z,101149.41
2018-07-03T05:51:47.528Z,101147.08
2018-07-03T05:54:13.523Z,101151.05
2018-07-03T05:56:39.933Z,101150.19
2018-07-03T05:59:05.917Z,101153.89
2018-07-03T06:01:31.928Z,101161.60
2018-07-03T06:03:57.933Z,101161.30
2018-07-03T06:06:23.916Z,101157.67
2018-07-03T06:08:49.896Z,101163.75
2018-07-03T06:11:15.897Z,101158.19
2018-07-03T06:13:41.916Z,101150.01
2018-07-03T06:16:07.908Z,101150.45
2018-07-03T06:18:33.987Z,101155.80
2018-07-03T06:21:00.038Z,101157.02
2018-07-03T06:23:25.994Z,101156.33
2018-07-03T06:25:52.107Z,101164.50
2018-07-03T06:28:18.183Z,101170.98
2018-07-03T06:30:44.173Z,101168.19
2018-07-03T06:33:10.291Z,101163.48
2018-07-03T06:35:36.252Z,101164.81
2018-07-03T06:38:02.229Z,101167.05
2018-07-03T06:40:28.221Z,101165.10
2018-07-03T06:42:54.299Z,101163.36
2018-07-03T06:45:20.282Z,101172.09
2018-07-03T06:47:46.244Z,101165.45
2018-07-03T06:50:12.288Z,101164.97
2018-07-03T06:52:38.260Z,101166.84
2018-07-03T06:55:04.259Z,101170.95
2018-07-03T06:57:30.219Z,101162.44
2018-07-03T06:59:56.179Z,101166.61
2018-07-03T07:02:22.180Z,101169.26
2018-07-03T07:04:48.180Z,101166.52
2018-07-03T07:07:14.171Z,101163.35
2018-07-03T07:09:40.184Z,101154.25
2018-07-03T07:12:06.169Z,101147.12
2018-07-03T07:14:32.135Z,101151.75
2018-07-03T07:16:58.138Z,101154.97
2018-07-03T07:19:24.106Z,101152.89
2018-07-03T07:21:50.155Z,101155.30
2018-07-03T07:24:16.245Z,101149.86
2018-07-03T07:26:42.244Z,101154.62
2018-07-03T07:29:08.284Z,101151.28
2018-07-03T07:31:34.345Z,101147.44
2018-07-03T07:34:00.339Z,101145.66
2018-07-03T07:36:26.314Z,101146.80
2018-07-03T07:38:52.276Z,101143.14
2018-07-03T07:41:18.269Z,101134.08
2018-07-03T07:43:44.307Z,101134.69
2018-07-03T07:46:10.268Z,101134.23
2018-07-03T07:48:36.326Z,101133.91
2018-07-03T07:51:02.331Z,101137.98
2018-07-03T07:53:28.323Z,101133.60
2018-07-03T07:55:54.330Z,101138.02
2018-07-03T07:58:20.314Z,101128.77
2018-07-03T08:00:46.330Z,101132.94
2018-07-03T08:03:12.320Z,101132.18
2018-07-03T08:05:38.371Z,101131.79
2018-07-03T08:08:04.345Z,101130.82
2018-07-03T08:10:30.396Z,101126.31
2018-07-03T08:12:56.413Z,101133.19
2018-07-03T08:15:22.387Z,101122.93
2018-07-03T08:17:48.360Z,101131.47
2018-07-03T08:20:14.340Z,101138.42
2018-07-03T08:22:40.343Z,101137.20
2018-07-03T08:25:06.333Z,101129.44
2018-07-03T08:27:32.407Z,101138.22
2018-07-03T08:29:58.404Z,101128.09
2018-07-03T08:32:24.419Z,101141.50
2018-07-03T08:34:50.407Z,101134.28
2018-07-03T08:37:16.371Z,101136.64
2018-07-03T08:39:42.327Z,101135.88
2018-07-03T08:42:08.328Z,101133.07
2018-07-03T08:44:34.299Z,101128.94
2018-07-03T08:47:00.478Z,101125.11
2018-07-03T08:49:26.692Z,101120.95
2018-07-03T08:51:52.766Z,101124.75
2018-07-03T08:54:18.652Z,101133.80
2018-07-03T08:56:44.834Z,101133.06
2018-07-03T08:59:10.820Z,101125.81
2018-07-03T09:01:36.825Z,101130.48
2018-07-03T09:04:03.037Z,101125.48
2018-07-03T09:06:29.115Z,101130.56
2018-07-03T09:08:55.108Z,101128.17
2018-07-03T09:11:21.099Z,101132.98
2018-07-03T09:13:47.113Z,101132.20
2018-07-03T09:16:13.108Z,101129.38
2018-07-03T09:18:39.072Z,101123.34
2018-07-03T09:21:05.077Z,101126.08
2018-07-03T09:23:31.155Z,101121.52
2018-07-03T09:25:57.094Z,101128.30
2018-07-03T09:28:23.075Z,101127.02
2018-07-03T09:30:49.047Z,101120.94
2018-07-03T09:33:15.003Z,101118.06
2018-07-03T09:35:41.172Z,101112.36
2018-07-03T09:38:07.160Z,101115.84
2018-07-03T09:40:33.145Z,101112.70
2018-07-03T09:42:59.423Z,101121.09
2018-07-03T09:45:25.394Z,101112.16
2018-07-03T09:47:51.400Z,101105.77
2018-07-03T09:50:17.398Z,101104.90
2018-07-03T09:52:43.385Z,101105.09
2018-07-03T09:55:09.413Z,101101.53
2018-07-03T09:57:35.476Z,101102.90
2018-07-03T10:00:01.477Z,101107.41
2018-07-03T10:02:27.499Z,101099.80
2018-07-03T10:04:53.591Z,101097.95
2018-07-03T10:07:19.608Z,101095.94
2018-07-03T10:09:45.582Z,101096.82
2018-07-03T10:12:11.547Z,101097.58
2018-07-03T10:14:37.524Z,101101.96
2018-07-03T10:17:03.543Z,101098.42
2018-07-03T10:19:29.521Z,101099.16
2018-07-03T10:21:55.512Z,101094.44
2018-07-03T10:24:21.493Z,101101.57
2018-07-03T10:26:47.504Z,101098.27
2018-07-03T10:29:14.041Z,101102.67
2018-07-03T10:31:40.056Z,101100.44
2018-07-03T10:34:06.041Z,101098.82
2018-07-03T10:36:32.050Z,101104.62
2018-07-03T10:38:58.032Z,101096.62
2018-07-03T10:41:24.041Z,101094.94
2018-07-03T10:43:50.031Z,101098.15
2018-07-03T10:46:16.025Z,101088.69
2018-07-03T10:48:42.038Z,101086.99
2018-07-03T10:51:08.020Z,101081.73
2018-07-03T10:53:34.000Z,101082.11
2018-07-03T10:55:59.973Z,101085.69
2018-07-03T10:58:26.005Z,101080.98
2018-07-03T11:00:52.017Z,101077.99
2018-07-03T11:03:18.021Z,101080.98
2018-07-03T11:05:44.013Z,101070.14
2018-07-03T11:08:10.020Z,101076.23
2018-07-03T11:10:36.017Z,101073.91
2018-07-03T11:13:02.230Z,101068.95
2018-07-03T11:15:28.280Z,101071.92
2018-07-03T11:17:54.235Z,101070.27
2018-07-03T11:20:20.217Z,101064.06
2018-07-03T11:22:46.534Z,101063.81
2018-07-03T11:25:12.545Z,101066.59
2018-07-03T11:27:38.498Z,101063.05
2018-07-03T11:30:04.493Z,101064.05
2018-07-03T11:32:30.819Z,101053.42
2018-07-03T11:34:56.797Z,101055.00
2018-07-03T11:37:22.773Z,101051.20
2018-07-03T11:39:48.776Z,101047.39
2018-07-03T11:42:14.735Z,101046.86
2018-07-03T11:44:40.766Z,101040.45
2018-07-03T11:47:06.730Z,101042.58
2018-07-03T11:49:32.718Z,101038.17
2018-07-03T11:51:58.709Z,101034.14
2018-07-03T11:54:24.716Z,101037.81
2018-07-03T11:56:50.706Z,101038.52
2018-07-03T11:59:16.718Z,101038.13
2018-07-03T12:01:43.027Z,101043.56
2018-07-03T12:04:08.989Z,101038.58
2018-07-03T12:06:34.969Z,101025.48
2018-07-03T12:09:01.061Z,101028.47
2018-07-03T12:11:27.052Z,101026.05
2018-07-03T12:13:53.066Z,101026.06
2018-07-03T12:16:19.068Z,101027.98
2018-07-03T12:18:45.049Z,101029.49
2018-07-03T12:21:11.038Z,101024.84
2018-07-03T12:23:37.022Z,101026.19
2018-07-03T12:26:02.994Z,101023.16
2018-07-03T12:28:28.989Z,101026.25
2018-07-03T12:30:54.982Z,101017.31
2018-07-03T12:33:20.982Z,101012.45
2018-07-03T12:35:46.960Z,101015.44
2018-07-03T12:38:12.942Z,101013.89
2018-07-03T12:40:38.934Z,101008.59
2018-07-03T12:43:05.011Z,101014.39
2018-07-03T12:45:30.994Z,101009.94
2018-07-03T12:47:56.967Z,101014.73
2018-07-03T12:50:22.924Z,101005.28
2018-07-03T12:52:48.905Z,101005.94
2018-07-03T12:55:14.887Z,101008.92
2018-07-03T12:57:41.080Z,101008.59
2018-07-03T13:00:07.145Z,101003.45
2018-07-03T13:02:33.124Z,101003.50
2018-07-03T13:04:59.143Z,100999.14
2018-07-03T13:07:25.106Z,101006.77
2018-07-03T13:09:51.163Z,100997.80
2018-07-03T13:12:17.249Z,100995.34
2018-07-03T13:14:43.245Z,100994.81
2018-07-03T13:17:09.287Z,100999.66
2018-07-03T13:19:35.253Z,100983.09
2018-07-03T13:22:01.231Z,100989.52
2018-07-03T13:24:27.234Z,100992.01
2018-07-03T13:26:53.365Z,100988.25
2018-07-03T13:29:19.356Z,100987.38
2018-07-03T13:31:45.430Z,100987.19
2018-07-03T13:34:11.469Z,100979.56
2018-07-03T13:36:37.431Z,100984.55
2018-07-03T13:39:03.503Z,100981.43
2018-07-03T13:41:29.472Z,100985.05
2018-07-03T13:43:55.678Z,100977.40
2018-07-03T13:46:21.668Z,100979.13
2018-07-03T13:48:47.667Z,100979.97
2018-07-03T13:51:13.629Z,100975.14
2018-07-03T13:53:39.614Z,100970.83
2018-07-03T13:56:05.581Z,100969.84
2018-07-03T13:58:31.558Z,100971.82
2018-07-03T14:00:57.558Z,100965.35
2018-07-03T14:03:23.501Z,100962.55
2018-07-03T14:05:49.491Z,100961.88
2018-07-03T14:08:15.475Z,100955.73
2018-07-03T14:10:41.488Z,100954.73
2018-07-03T14:13:07.452Z,100963.02
2018-07-03T14:15:33.485Z,100953.56
2018-07-03T14:17:59.590Z,100951.25
2018-07-03T14:20:25.580Z,100943.28
2018-07-03T14:22:51.619Z,100944.12
2018-07-03T14:25:17.589Z,100937.97
2018-07-03T14:27:43.592Z,100942.81
2018-07-03T14:30:09.606Z,100942.81
2018-07-03T14:32:35.556Z,100943.80
2018-07-03T14:35:01.532Z,100938.98
2018-07-03T14:37:27.511Z,100945.61
2018-07-03T14:39:53.476Z,100942.13
2018-07-03T14:42:19.484Z,100945.80
2018-07-03T14:44:45.489Z,100938.97
2018-07-03T14:47:11.466Z,100942.46
2018-07-03T14:49:37.454Z,100942.95
2018-07-03T14:52:03.419Z,100936.34
2018-07-03T14:54:29.422Z,100938.14
2018-07-03T14:56:55.430Z,100937.97
2018-07-03T14:59:21.407Z,100934.68
2018-07-03T15:01:47.408Z,100931.19
2018-07-03T15:04:13.371Z,100935.48
2018-07-03T15:06:39.451Z,100932.69
2018-07-03T15:09:05.463Z,100931.19
2018-07-03T15:11:31.441Z,100924.05
2018-07-03T15:13:57.451Z,100923.05
2018-07-03T15:16:23.461Z,100915.11
2018-07-03T15:18:49.440Z,100915.09
2018-07-03T15:21:15.450Z,100914.92
2018-07-03T15:23:41.512Z,100915.41
2018-07-03T15:26:07.537Z,100916.42
2018-07-03T15:28:33.520Z,100917.58
2018-07-03T15:30:59.490Z,100913.92
2018-07-03T15:33:25.460Z,100908.12
2018-07-03T15:35:51.536Z,100909.95
2018-07-03T15:38:17.540Z,100910.11
2018-07-03T15:40:43.517Z,100907.78
2018-07-03T15:43:09.498Z,100900.00
2018-07-03T15:45:35.463Z,100900.17
2018-07-03T15:48:02.006Z,100902.16
2018-07-03T15:50:28.000Z,100899.66
2018-07-03T15:52:53.978Z,100898.16
2018-07-03T15:55:19.941Z,100898.01
2018-07-03T15:57:45.920Z,100899.66
2018-07-03T16:00:11.911Z,100903.82
2018-07-03T16:02:37.905Z,100898.85
2018-07-03T16:05:03.896Z,100898.16
2018-07-03T16:07:29.872Z,100901.16
2018-07-03T16:09:55.880Z,100893.69
2018-07-03T16:12:21.916Z,100888.23
2018-07-03T16:14:47.919Z,100889.53
2018-07-03T16:17:13.874Z,100884.39
2018-07-03T16:19:39.848Z,100882.92
2018-07-03T16:22:05.831Z,100878.09
2018-07-03T16:24:31.811Z,100885.55
2018-07-03T16:26:57.844Z,100882.58
2018-07-03T16:29:23.848Z,100889.05
2018-07-03T16:31:49.877Z,100879.77
2018-07-03T16:34:15.875Z,100882.06
2018-07-03T16:36:41.865Z,100877.77
2018-07-03T16:39:07.844Z,100879.25
2018-07-03T16:41:33.838Z,100875.45
2018-07-03T16:44:00.103Z,100876.94
2018-07-03T16:46:26.049Z,100877.25
2018-07-03T16:48:52.021Z,100868.31
2018-07-03T16:51:18.014Z,100872.64
2018-07-03T16:53:44.001Z,100877.77
2018-07-03T16:56:10.196Z,100874.27
2018-07-03T16:58:36.217Z,100875.94
2018-07-03T17:01:02.162Z,100873.28
2018-07-03T17:03:28.156Z,100869.97
2018-07-03T17:05:54.112Z,100873.95
2018-07-03T17:08:20.094Z,100870.13
2018-07-03T17:10:46.097Z,100871.78
2018-07-03T17:13:12.081Z,100874.94
2018-07-03T17:15:38.076Z,100871.30
2018-07-03T17:18:04.053Z,100869.62
2018-07-03T17:20:30.071Z,100880.58
2018-07-03T17:22:56.065Z,100868.31
2018-07-03T17:25:22.108Z,100864.33
2018-07-03T17:27:48.120Z,100861.52
2018-07-03T17:30:14.099Z,100857.86
2018-07-03T17:32:40.355Z,100854.70
2018-07-03T17:35:06.323Z,100854.36
2018-07-03T17:37:32.289Z,100858.02
2018-07-03T17:39:58.245Z,100853.38
2018-07-03T17:42:24.259Z,100853.20
2018-07-03T17:44:50.230Z,100853.03
2018-07-03T17:47:16.221Z,100843.92
2018-07-03T17:49:42.218Z,100841.78
2018-07-03T17:52:08.199Z,100840.11
2018-07-03T17:54:34.174Z,100843.74
2018-07-03T17:57:00.170Z,100844.75
2018-07-03T17:59:26.171Z,100842.73
2018-07-03T18:01:52.524Z,100839.77
2018-07-03T18:04:18.552Z,100843.42
2018-07-03T18:06:45.368Z,100842.09
2018-07-03T18:09:11.621Z,100840.09
2018-07-03T18:11:37.606Z,100844.43
2018-07-03T18:14:03.602Z,100843.77
2018-07-03T18:16:29.631Z,100849.73
2018-07-03T18:18:55.612Z,100842.28
2018-07-03T18:21:21.599Z,100842.76
2018-07-03T18:23:47.603Z,100839.28
2018-07-03T18:26:13.739Z,100850.87
2018-07-03T18:28:39.721Z,100855.37
2018-07-03T18:31:05.703Z,100855.53
2018-07-03T18:33:31.700Z,100861.00
2018-07-03T18:35:57.699Z,100859.36
2018-07-03T18:38:23.684Z,100861.50
2018-07-03T18:40:50.018Z,100867.14
2018-07-03T18:43:16.025Z,100869.97
2018-07-03T18:45:42.028Z,100870.61
2018-07-03T18:48:08.028Z,100864.64
2018-07-03T18:50:34.327Z,100868.94
2018-07-03T18:53:00.278Z,100865.81
2018-07-03T18:55:26.245Z,100869.77
2018-07-03T18:57:52.224Z,100869.95
2018-07-03T19:00:18.247Z,100871.28
2018-07-03T19:02:44.206Z,100871.41
2018-07-03T19:05:10.182Z,100864.45
2018-07-03T19:07:36.233Z,100865.62
2018-07-03T19:10:02.236Z,100874.58
2018-07-03T19:12:28.260Z,100865.97
2018-07-03T19:14:54.305Z,100866.10
2018-07-03T19:17:20.292Z,100862.94
2018-07-03T19:19:46.384Z,100864.78
2018-07-03T19:22:12.424Z,100863.45
2018-07-03T19:24:38.406Z,100866.61
2018-07-03T19:27:05.262Z,100865.28
2018-07-03T19:29:31.269Z,100868.59
2018-07-03T19:31:57.278Z,100865.13
2018-07-03T19:34:23.268Z,100869.80
2018-07-03T19:36:49.299Z,100868.62
2018-07-03T19:39:15.319Z,100869.63
2018-07-03T19:41:41.339Z,100877.25
2018-07-03T19:44:07.331Z,100872.45
2018-07-03T19:46:33.312Z,100874.78
2018-07-03T19:48:59.308Z,100872.95
2018-07-03T19:51:25.338Z,100876.42
2018-07-03T19:53:51.340Z,100883.89
2018-07-03T19:56:17.348Z,100879.58
2018-07-03T19:58:43.372Z,100881.41
2018-07-03T20:01:09.353Z,100892.70
2018-07-03T20:03:35.333Z,100889.55
2018-07-03T20:06:01.324Z,100892.84
2018-07-03T20:08:27.472Z,100882.75
2018-07-03T20:10:53.514Z,100893.37
2018-07-03T20:13:20.536Z,100885.91
2018-07-03T20:15:46.519Z,100893.84
2018-07-03T20:18:12.509Z,100888.39
2018-07-03T20:20:38.471Z,100890.20
2018-07-03T20:23:04.442Z,100887.38
2018-07-03T20:25:30.415Z,100898.17
2018-07-03T20:27:56.391Z,100893.54
2018-07-03T20:30:23.403Z,100895.20
2018-07-03T20:32:49.431Z,100897.84
2018-07-03T20:35:15.427Z,100899.50
2018-07-03T20:37:41.426Z,100897.52
2018-07-03T20:40:07.396Z,100900.99
2018-07-03T20:42:33.374Z,100895.19
2018-07-03T20:44:59.357Z,100894.84
2018-07-03T20:47:25.370Z,100896.84
2018-07-03T20:49:51.346Z,100894.19
2018-07-03T20:52:17.347Z,100901.50
2018-07-03T20:54:43.325Z,100899.51
2018-07-03T20:57:09.334Z,100898.32
2018-07-03T20:59:35.335Z,100903.47
2018-07-03T21:02:01.317Z,100907.13
2018-07-03T21:04:27.345Z,100904.00
2018-07-03T21:06:53.303Z,100910.44
2018-07-03T21:09:19.322Z,100908.14
2018-07-03T21:11:45.502Z,100905.64
2018-07-03T21:14:11.508Z,100902.64
2018-07-03T21:16:37.577Z,100910.45
2018-07-03T21:19:03.567Z,100911.11
2018-07-03T21:21:29.562Z,100913.44
2018-07-03T21:23:55.536Z,100916.10
2018-07-03T21:26:21.524Z,100912.45
2018-07-03T21:28:47.558Z,100910.95
2018-07-03T21:31:13.650Z,100911.95
2018-07-03T21:33:39.843Z,100907.61
2018-07-03T21:36:05.809Z,100905.80
2018-07-03T21:38:31.826Z,100904.47
2018-07-03T21:40:57.794Z,100900.32
2018-07-03T21:43:23.779Z,100906.12
2018-07-03T21:45:49.750Z,100900.16
2018-07-03T21:48:15.812Z,100901.81
2018-07-03T21:50:41.787Z,100897.83
2018-07-03T21:53:07.771Z,100895.02
2018-07-03T21:55:33.723Z,100896.17
2018-07-03T21:57:59.733Z,100894.84
2018-07-03T22:00:25.748Z,100894.20
2018-07-03T22:02:51.674Z,100891.36
2018-07-03T22:05:17.639Z,100899.14
2018-07-03T22:07:43.627Z,100888.19
2018-07-03T22:10:09.620Z,100902.30
2018-07-03T22:12:35.607Z,100902.64
2018-07-03T22:15:01.601Z,100900.99
2018-07-03T22:17:27.568Z,100901.45
2018-07-03T22:19:53.569Z,100900.00
2018-07-03T22:22:19.541Z,100897.67
2018-07-03T22:24:45.537Z,100890.20
2018-07-03T22:27:11.519Z,100894.50
2018-07-03T22:29:37.806Z,100897.47
2018-07-03T22:32:03.768Z,100896.00
2018-07-03T22:34:29.742Z,100901.51
2018-07-03T22:36:55.923Z,100900.62
2018-07-03T22:39:21.921Z,100903.49
2018-07-03T22:41:47.917Z,100905.30
2018-07-03T22:44:13.875Z,100906.78
2018-07-03T22:46:39.911Z,100909.62
2018-07-03T22:49:05.895Z,100909.58
2018-07-03T22:51:31.858Z,100911.38
2018-07-03T22:53:57.958Z,100911.05
2018-07-03T22:56:23.919Z,100904.42
2018-07-03T22:58:49.889Z,100904.75
2018-07-03T23:01:15.887Z,100904.77
2018-07-03T23:03:41.872Z,100899.61
2018-07-03T23:06:07.861Z,100896.96
2018-07-03T23:08:33.925Z,100901.63
2018-07-03T23:10:59.878Z,100902.00
2018-07-03T23:13:25.917Z,100904.47
2018-07-03T23:15:51.823Z,100904.77
2018-07-03T23:18:17.833Z,100903.44
2018-07-03T23:20:43.799Z,100906.27
2018-07-03T23:23:09.801Z,100909.77
2018-07-03T23:25:35.907Z,100911.88
2018-07-03T23:28:01.887Z,100910.23
2018-07-03T23:30:27.889Z,100909.25
2018-07-03T23:32:53.856Z,100914.71
2018-07-03T23:35:19.852Z,100911.41
2018-07-03T23:37:45.828Z,100914.05
2018-07-03T23:40:11.791Z,100915.73
2018-07-03T23:42:37.768Z,100912.39
2018-07-03T23:45:03.718Z,100915.53
2018-07-03T23:47:29.742Z,100908.58
2018-07-03T23:49:55.806Z,100913.55
2018-07-03T23:52:21.799Z,100919.70
2018-07-03T23:54:47.731Z,100917.19
2018-07-03T23:57:13.716Z,100920.23
2018-07-03T23:59:39.676Z,100918.37
